createdAt,value
2022-12-18T00:02:24.567Z,17.42
2022-12-18T00:07:27.760Z,30.10
2022-12-18T00:12:31.022Z,38.28
2022-12-18T00:17:34.207Z,32.47
2022-12-18T00:22:37.269Z,27.17
2022-12-18T00:27:40.275Z,26.42
2022-12-18T00:32:43.674Z,43.75
2022-12-18T00:37:46.774Z,37.60
2022-12-18T00:42:58.826Z,49.55
2022-12-18T00:48:01.886Z,23.75
2022-12-18T00:53:05.209Z,33.30
2022-12-18T00:58:08.964Z,45.53
2022-12-18T01:03:15.538Z,27.77
2022-12-18T01:08:20.442Z,36.20
2022-12-18T01:13:23.645Z,37.28
2022-12-18T01:18:26.900Z,40.33
2022-12-18T01:23:30.160Z,47.33
2022-12-18T01:28:33.375Z,28.48
2022-12-18T01:33:36.966Z,37.08
2022-12-18T01:38:40.325Z,64.78
2022-12-18T01:44:01.523Z,41.75
2022-12-18T01:49:04.781Z,76.20
2022-12-18T01:54:07.921Z,25.30
2022-12-18T01:59:12.782Z,13.88
2022-12-18T02:04:25.063Z,16.95
2022-12-18T02:09:55.171Z,32.60
2022-12-18T02:15:11.095Z,95.07
2022-12-18T02:20:20.903Z,27.05
2022-12-18T02:25:57.744Z,18.42
2022-12-18T02:31:05.682Z,31.33
2022-12-18T02:36:10.994Z,18.73
2022-12-18T02:41:17.253Z,35.42
2022-12-18T02:46:32.484Z,51.83
2022-12-18T02:52:23.608Z,51.92
2022-12-18T02:57:52.860Z,15.25
2022-12-18T03:03:14.552Z,34.63
2022-12-18T03:08:23.353Z,35.58
2022-12-18T03:13:38.402Z,34.78
2022-12-18T03:19:18.203Z,32.47
2022-12-18T03:24:24.301Z,59.15
2022-12-18T03:29:40.147Z,46.28
2022-12-18T03:34:48.970Z,57.92
2022-12-18T03:39:54.313Z,21.77
2022-12-18T03:45:04.200Z,36.28
2022-12-18T03:50:29.652Z,38.13
2022-12-18T03:55:35.908Z,63.13
2022-12-18T04:00:42.758Z,43.67
2022-12-18T04:05:51.663Z,74.00
2022-12-18T04:10:57.322Z,40.40
2022-12-18T04:16:04.244Z,64.05
2022-12-18T04:21:07.711Z,30.73
2022-12-18T04:26:11.453Z,41.45
2022-12-18T04:31:27.752Z,59.42
2022-12-18T04:36:31.736Z,25.20
2022-12-18T04:41:34.895Z,70.30
2022-12-18T04:46:38.656Z,39.00
2022-12-18T04:51:41.800Z,34.63
2022-12-18T04:56:44.947Z,42.88
2022-12-18T05:01:48.276Z,42.60
2022-12-18T05:06:51.539Z,44.70
2022-12-18T05:11:55.033Z,34.78
2022-12-18T05:17:01.076Z,27.10
2022-12-18T05:22:04.652Z,36.40
2022-12-18T05:27:07.834Z,45.03
2022-12-18T05:32:10.986Z,50.80
2022-12-18T05:37:15.058Z,27.38
2022-12-18T05:42:18.124Z,83.88
2022-12-18T05:47:21.263Z,28.50
2022-12-18T05:52:24.427Z,17.77
2022-12-18T05:57:27.891Z,74.30
2022-12-18T06:02:31.120Z,66.18
2022-12-18T06:07:34.517Z,55.03
2022-12-18T06:12:37.697Z,29.55
2022-12-18T06:17:40.875Z,75.25
2022-12-18T06:22:44.154Z,109.72
2022-12-18T06:27:49.108Z,136.65
2022-12-18T06:32:56.580Z,53.28
2022-12-18T06:38:00.065Z,62.75
2022-12-18T06:43:03.327Z,115.72
2022-12-18T06:48:06.698Z,46.72
2022-12-18T06:53:09.780Z,48.47
2022-12-18T06:58:12.908Z,66.18
2022-12-18T07:03:16.059Z,67.70
2022-12-18T07:08:19.319Z,61.20
2022-12-18T07:13:22.464Z,81.53
2022-12-18T07:18:25.584Z,62.58
2022-12-18T07:23:28.811Z,35.72
2022-12-18T07:28:33.143Z,32.40
2022-12-18T07:33:36.882Z,22.23
2022-12-18T07:38:40.942Z,18.08
2022-12-18T07:43:44.718Z,22.45
2022-12-18T07:48:49.757Z,42.58
2022-12-18T07:53:53.468Z,30.08
2022-12-18T07:58:57.223Z,40.63
2022-12-18T08:04:00.518Z,18.90
2022-12-18T08:09:04.037Z,71.03
2022-12-18T08:14:07.160Z,86.72
2022-12-18T08:19:13.438Z,187.10
2022-12-18T08:24:16.681Z,39.50
2022-12-18T08:29:21.704Z,39.67
2022-12-18T08:34:25.042Z,69.80
2022-12-18T08:39:28.107Z,33.05
2022-12-18T08:44:40.316Z,31.33
2022-12-18T08:49:46.540Z,29.00
2022-12-18T08:54:49.603Z,20.08
2022-12-18T08:59:52.756Z,17.55
2022-12-18T09:04:57.801Z,27.77
2022-12-18T09:10:01.020Z,32.97
2022-12-18T09:15:06.488Z,27.92
2022-12-18T09:20:10.202Z,30.27
2022-12-18T09:25:13.409Z,29.42
2022-12-18T09:30:16.544Z,30.33
2022-12-18T09:35:19.769Z,47.50
2022-12-18T09:40:26.556Z,30.02
2022-12-18T09:45:47.443Z,16.15
2022-12-18T09:50:52.869Z,158.35
2022-12-18T09:55:57.403Z,23.77
2022-12-18T10:01:00.925Z,32.42
2022-12-18T10:06:22.215Z,60.90
2022-12-18T10:11:34.396Z,34.97
2022-12-18T10:16:40.872Z,59.22
2022-12-18T10:22:15.134Z,29.83
2022-12-18T10:27:24.454Z,34.92
2022-12-18T10:32:30.544Z,66.15
2022-12-18T10:37:33.700Z,22.92
2022-12-18T10:42:37.171Z,34.85
2022-12-18T10:47:51.070Z,49.33
2022-12-18T10:53:00.461Z,25.92
2022-12-18T10:58:32.701Z,38.10
2022-12-18T11:03:39.752Z,30.30
2022-12-18T11:08:44.868Z,28.58
2022-12-18T11:14:13.628Z,63.47
2022-12-18T11:19:25.567Z,35.97
2022-12-18T11:24:36.831Z,31.75
2022-12-18T11:29:46.445Z,30.77
2022-12-18T11:34:59.002Z,32.72
2022-12-18T11:40:16.129Z,27.38
2022-12-18T11:45:29.278Z,36.10
2022-12-18T11:50:48.073Z,27.08
2022-12-18T11:56:03.665Z,32.83
2022-12-18T12:01:17.991Z,34.47
2022-12-18T12:06:33.668Z,36.60
2022-12-18T12:11:54.999Z,38.80
2022-12-18T12:17:09.064Z,36.13
2022-12-18T12:22:15.195Z,36.17
2022-12-18T12:27:39.171Z,48.00
2022-12-18T12:33:07.087Z,43.17
2022-12-18T12:38:19.611Z,107.35
2022-12-18T12:43:28.666Z,71.40
2022-12-18T12:48:44.711Z,36.92
2022-12-18T12:53:50.098Z,89.43
2022-12-18T12:58:57.392Z,74.65
2022-12-18T13:04:25.153Z,107.35
2022-12-18T13:09:36.721Z,99.13
2022-12-18T13:14:42.263Z,92.22
2022-12-18T13:19:45.713Z,111.45
2022-12-18T13:24:49.890Z,111.70
2022-12-18T13:29:53.195Z,120.97
2022-12-18T13:35:18.226Z,204.00
2022-12-18T13:40:40.864Z,76.53
2022-12-18T13:46:04.631Z,87.63
2022-12-18T13:51:11.311Z,127.75
2022-12-18T13:56:20.966Z,177.20
2022-12-18T14:01:25.417Z,97.88
2022-12-18T14:06:28.900Z,123.00
2022-12-18T14:11:34.807Z,167.27
2022-12-18T14:16:38.341Z,82.10
2022-12-18T14:21:41.946Z,212.00
2022-12-18T14:26:45.723Z,76.20
2022-12-18T14:32:17.378Z,58.50
2022-12-18T14:37:26.281Z,128.93
2022-12-18T14:42:30.010Z,215.45
2022-12-18T14:47:33.247Z,68.95
2022-12-18T14:52:36.754Z,53.35
2022-12-18T14:57:41.644Z,52.75
2022-12-18T15:02:54.906Z,40.80
2022-12-18T15:08:01.603Z,51.30
2022-12-18T15:13:04.664Z,48.70
2022-12-18T15:18:13.363Z,45.78
2022-12-18T15:23:23.000Z,46.10
2022-12-18T15:28:38.164Z,41.35
2022-12-18T15:34:01.962Z,48.28
2022-12-18T15:39:06.683Z,65.32
2022-12-18T15:44:26.732Z,62.08
2022-12-18T15:49:29.894Z,206.93
2022-12-18T15:54:52.785Z,83.03
2022-12-18T15:59:59.496Z,103.20
2022-12-18T16:05:02.826Z,195.88
2022-12-18T16:10:06.871Z,112.22
2022-12-18T16:15:17.473Z,96.50
2022-12-18T16:20:25.333Z,159.68
2022-12-18T16:25:30.180Z,139.90
2022-12-18T16:30:38.288Z,121.22
2022-12-18T16:35:42.102Z,99.80
2022-12-18T16:41:04.939Z,99.95
2022-12-18T16:46:08.122Z,102.50
2022-12-18T16:51:11.335Z,120.55
2022-12-18T16:56:14.507Z,57.47
2022-12-18T17:01:17.689Z,159.20
2022-12-18T17:06:22.615Z,94.82
2022-12-18T17:11:27.849Z,126.32
2022-12-18T17:16:32.396Z,67.50
2022-12-18T17:21:36.772Z,110.95
2022-12-18T17:26:40.817Z,94.70
2022-12-18T17:31:44.237Z,122.28
2022-12-18T17:36:47.439Z,108.43
2022-12-18T17:41:50.983Z,97.22
2022-12-18T17:46:54.251Z,95.15
2022-12-18T17:51:57.547Z,95.18
2022-12-18T17:57:00.691Z,104.30
2022-12-18T18:02:04.065Z,99.78
2022-12-18T18:07:08.087Z,200.98
2022-12-18T18:12:29.613Z,81.40
2022-12-18T18:17:32.751Z,98.78
2022-12-18T18:22:36.066Z,102.35
2022-12-18T18:27:39.732Z,360.77
2022-12-18T18:32:42.835Z,153.75
2022-12-18T18:37:49.113Z,286.08
2022-12-18T18:42:53.676Z,220.90
2022-12-18T18:47:56.747Z,179.55
2022-12-18T18:53:00.476Z,414.92
2022-12-18T18:58:03.608Z,242.85
2022-12-18T19:03:08.790Z,246.00
2022-12-18T19:08:12.129Z,284.25
2022-12-18T19:13:27.439Z,505.90
2022-12-18T19:18:30.787Z,269.08
2022-12-18T19:23:34.902Z,212.52
2022-12-18T19:28:38.182Z,328.85
2022-12-18T19:33:44.188Z,299.15
2022-12-18T19:38:49.496Z,78.68
2022-12-18T19:43:53.190Z,322.15
2022-12-18T19:48:56.308Z,113.70
2022-12-18T19:54:01.817Z,277.23
2022-12-18T19:59:05.526Z,90.18
2022-12-18T20:04:09.091Z,62.33
2022-12-18T20:09:12.469Z,55.35
2022-12-18T20:14:22.981Z,47.42
2022-12-18T20:19:27.052Z,36.22
2022-12-18T20:24:30.482Z,30.02
2022-12-18T20:29:33.582Z,27.42
2022-12-18T20:34:37.080Z,24.17
2022-12-18T20:39:40.751Z,21.50
2022-12-18T20:44:44.257Z,28.30
2022-12-18T20:49:47.637Z,25.73
2022-12-18T20:54:50.834Z,26.98
2022-12-18T20:59:53.912Z,24.73
2022-12-18T21:04:56.954Z,25.48
2022-12-18T21:10:00.066Z,16.98
2022-12-18T21:15:05.701Z,21.35
2022-12-18T21:20:09.733Z,18.60
2022-12-18T21:25:16.525Z,20.75
2022-12-18T21:30:19.788Z,15.90
2022-12-18T21:35:23.327Z,17.90
2022-12-18T21:40:28.560Z,19.08
2022-12-18T21:45:32.070Z,15.45
2022-12-18T21:50:35.105Z,13.60
2022-12-18T21:55:38.165Z,10.45
2022-12-18T22:00:44.528Z,8.52
2022-12-18T22:06:08.880Z,8.07
2022-12-18T22:11:13.652Z,8.57
2022-12-18T22:16:16.798Z,8.30
2022-12-18T22:21:27.143Z,9.32
2022-12-18T22:26:39.538Z,4.43
2022-12-18T22:31:43.477Z,6.43
2022-12-18T22:36:48.373Z,6.43
2022-12-18T22:41:51.940Z,7.85
2022-12-18T22:47:06.078Z,8.15
2022-12-18T22:52:10.631Z,7.88
2022-12-18T22:57:13.808Z,3.63
2022-12-18T23:02:19.302Z,5.40
2022-12-18T23:07:22.641Z,4.05
2022-12-18T23:12:25.974Z,2.83
2022-12-18T23:17:29.286Z,4.97
2022-12-18T23:22:32.458Z,3.38
2022-12-18T23:27:35.685Z,4.80
2022-12-18T23:32:39.314Z,2.63
2022-12-18T23:37:58.600Z,6.35
2022-12-18T23:43:02.733Z,4.55
2022-12-18T23:48:06.035Z,4.50
2022-12-18T23:53:10.511Z,5.45
2022-12-18T23:58:22.692Z,4.15
